Tinsdal — V2AJ2 — position and weather

sailwx.info

Track history (hours):
 
Tides and Currents Weather Stations Pressure Air Temp Water Temp Dewpoint Dewpoint Depression Visibility Wind Speed Wind Dir Waves Ship Positions

Tinsdal

Last reported at 2014-Jul-28 18:23 UTC. Time now 2014-Jul-29 00:41 UTC.
Position N 35°55' W 005°18'.

Length 90 m; draft 5.6 m.

Type: Cargo ship. MMSI: 305573000.

Date/timePositionNaut miles runAvg speedWind from/ knotsBaromVisibWave heightAir tempDewpointWater temp
2014-Jul-28 18:23N 35°55' W 005°18'2 1.9
2014-Jul-28 17:31N 35°54' W 005°19'0 0.0
2014-Jul-28 16:31N 35°54' W 005°19'0 0.0
2014-Jul-28 15:31N 35°54' W 005°19'0 0.0
2014-Jul-28 14:31N 35°54' W 005°19'1 0.6
2014-Jul-28 13:33N 35°54' W 005°19'11810.4
2014-Jul-28 02:13N 36°12' W 007°42'5410.8
2014-Jul-27 21:13N 36°27' W 008°47'60 9.7
2014-Jul-27 15:06N 37°08' W 009°40'4311.0
2014-Jul-27 11:11N 37°50' W 009°52'610.3
2014-Jul-27 10:33N 37°57' W 009°54'1110.2
2014-Jul-27 09:30N 38°07' W 009°57'  
2014-Jul-23 17:03N 50°28' W 000°24'2710.4
2014-Jul-23 14:27N 50°35' E 000°17'1011.8
2014-Jul-23 13:33N 50°38' E 000°33'1211.4
2014-Jul-23 12:31N 50°44' E 000°48'31 9.9
2014-Jul-23 09:21N 51°04' E 001°27'8 9.7
2014-Jul-23 08:33N 51°09' E 001°36'10 9.8
2014-Jul-23 07:33N 51°16' E 001°47'1111.2
2014-Jul-23 06:33N 51°27' E 001°53'1211.8
2014-Jul-23 05:33N 51°35' E 002°06'1211.7
2014-Jul-23 04:32N 51°44' E 002°19'3110.1
2014-Jul-23 01:31N 52°03' E 002°58'9 9.7
2014-Jul-23 00:33N 52°04' E 003°13'9 9.3
2014-Jul-22 23:33N 52°04' E 003°28'9 9.1
2014-Jul-22 22:33N 52°05' E 003°43'9 9.1
2014-Jul-22 21:33N 52°02' E 003°57'8 6.4
2014-Jul-22 20:21N 51°58' E 004°07'0 0.0
2014-Jul-22 19:33N 51°58' E 004°07'0 0.0
2014-Jul-22 18:33N 51°58' E 004°07'0 0.0
2014-Jul-22 17:21N 51°58' E 004°07'0 0.0
2014-Jul-22 16:33N 51°58' E 004°07'0 0.0
2014-Jul-22 15:30N 51°58' E 004°07'0 0.0
2014-Jul-22 14:33N 51°58' E 004°07'0 0.0
2014-Jul-22 11:27N 51°58' E 004°07'0 0.0
2014-Jul-22 10:33N 51°58' E 004°07'0 0.0
2014-Jul-22 09:30N 51°58' E 004°07'0 0.0
2014-Jul-22 08:33N 51°58' E 004°07'0 0.0
2014-Jul-22 07:33N 51°58' E 004°07'0 0.0
2014-Jul-22 06:30N 51°58' E 004°07'0 0.0
2014-Jul-22 05:30N 51°58' E 004°07'0 0.0
2014-Jul-22 04:33N 51°58' E 004°07'0 0.0
2014-Jul-22 03:27N 51°58' E 004°07'0 0.0
2014-Jul-22 02:27N 51°58' E 004°07'0 0.0
2014-Jul-22 01:21N 51°58' E 004°07'0 0.0
2014-Jul-21 23:30N 51°58' E 004°07'0 0.0
2014-Jul-21 22:33N 51°58' E 004°07'0 0.0
2014-Jul-21 21:33N 51°58' E 004°07'0 0.0
2014-Jul-21 20:03N 51°58' E 004°07'0 0.0
2014-Jul-21 17:27N 51°58' E 004°07'0 0.0
2014-Jul-21 16:27N 51°58' E 004°07'0 0.0
2014-Jul-21 15:15N 51°58' E 004°07'0 0.0
2014-Jul-21 14:33N 51°58' E 004°07'0 0.0
2014-Jul-21 13:27N 51°58' E 004°07'0 0.1
2014-Jul-21 08:29N 51°57' E 004°08'0 0.0
2014-Jul-21 07:32N 51°57' E 004°07'0 0.0
2014-Jul-21 06:32N 51°57' E 004°07'0 0.0
2014-Jul-21 05:26N 51°57' E 004°07'0 0.0
2014-Jul-21 04:32N 51°57' E 004°07'0 0.0
2014-Jul-21 03:32N 51°57' E 004°07'0 0.0
2014-Jul-21 02:32N 51°57' E 004°07'0 0.0
2014-Jul-21 01:29N 51°57' E 004°07'0 0.0
2014-Jul-21 00:29N 51°57' E 004°07'0 0.0
2014-Jul-20 23:32N 51°57' E 004°07'0 0.0
2014-Jul-20 22:32N 51°57' E 004°07'0 0.0
2014-Jul-20 21:32N 51°57' E 004°07'0 0.0
2014-Jul-20 20:32N 51°57' E 004°07'0 0.0
2014-Jul-20 19:32N 51°57' E 004°07'0 0.0
2014-Jul-20 18:32N 51°57' E 004°07'0 0.0
2014-Jul-20 17:32N 51°57' E 004°07'0 0.0
2014-Jul-20 16:29N 51°57' E 004°07'0 0.0
2014-Jul-20 15:32N 51°57' E 004°07'0 0.0
2014-Jul-20 14:29N 51°57' E 004°07'0 0.0
2014-Jul-20 13:29N 51°57' E 004°07'0 0.0
2014-Jul-20 12:32N 51°57' E 004°07'0 0.0
2014-Jul-20 11:32N 51°57' E 004°07'0 0.0
2014-Jul-20 10:29N 51°57' E 004°07'0 0.0
2014-Jul-20 09:32N 51°57' E 004°07'0 0.0
2014-Jul-20 08:32N 51°57' E 004°07'0 0.0
2014-Jul-20 07:32N 51°57' E 004°07'0 0.0
2014-Jul-20 06:32N 51°57' E 004°07'0 0.0
2014-Jul-20 05:29N 51°57' E 004°07'0 0.0
2014-Jul-20 04:32N 51°57' E 004°07'0 0.0
2014-Jul-20 03:32N 51°57' E 004°07'0 0.0
2014-Jul-20 02:32N 51°57' E 004°07'0 0.0
2014-Jul-20 01:32N 51°57' E 004°07'0 0.0
2014-Jul-20 00:32N 51°57' E 004°07'0 0.0
2014-Jul-19 23:32N 51°57' E 004°07'0 0.0
2014-Jul-19 22:32N 51°57' E 004°07'0 0.0
2014-Jul-19 21:32N 51°57' E 004°07'0 0.0
2014-Jul-19 20:32N 51°57' E 004°07'0 0.0
2014-Jul-19 19:32N 51°57' E 004°07'0 0.0
2014-Jul-19 18:32N 51°57' E 004°08'0 0.0
2014-Jul-19 17:26N 51°57' E 004°08'0 0.0
2014-Jul-19 16:32N 51°57' E 004°08'0 0.0
2014-Jul-19 15:32N 51°57' E 004°08'0 0.0
2014-Jul-19 14:23N 51°57' E 004°08'0 0.0
2014-Jul-19 13:26N 51°57' E 004°08'0 0.0
2014-Jul-19 12:32N 51°57' E 004°08'0 0.0
2014-Jul-19 11:32N 51°57' E 004°08'0 0.0
2014-Jul-19 10:32N 51°57' E 004°08'0 0.0
2014-Jul-19 09:23N 51°57' E 004°08'0 0.0
2014-Jul-19 08:32N 51°57' E 004°08'0 0.0
2014-Jul-19 07:32N 51°57' E 004°08'0 0.0
2014-Jul-19 06:26N 51°57' E 004°08'0 0.0
2014-Jul-19 05:32N 51°57' E 004°08'0 0.0
2014-Jul-19 04:29N 51°57' E 004°08'0 0.0
2014-Jul-19 03:32N 51°57' E 004°08'0 0.0
2014-Jul-19 02:32N 51°57' E 004°08'0 0.0
2014-Jul-19 01:32N 51°57' E 004°08'0 0.0
2014-Jul-19 00:32N 51°57' E 004°08'0 0.0
2014-Jul-18 23:23N 51°57' E 004°08'0 0.0
2014-Jul-18 22:11N 51°57' E 004°08'0 0.0
2014-Jul-18 21:20N 51°57' E 004°08'0 0.0
2014-Jul-18 20:26N 51°57' E 004°08'1 1.2
2014-Jul-18 19:33N 51°59' E 004°07'8 7.8
2014-Jul-18 18:33N 51°54' E 004°17'  
Track history (hours):
 
Tides and Currents Weather Stations Pressure Air Temp Water Temp Dewpoint Dewpoint Depression Visibility Wind Speed Wind Dir Waves Ship Positions

Tinsdal

Last reported at 2014-Jul-28 18:23 UTC. Time now 2014-Jul-29 00:41 UTC.
Position N 35°55' W 005°18'.

Length 90 m; draft 5.6 m.

Type: Cargo ship. MMSI: 305573000.

Date/timePositionNaut miles runAvg speedWind from/ knotsBaromVisibWave heightAir tempDewpointWater temp
2014-Jul-28 18:23N 35°55' W 005°18'2 1.9
2014-Jul-28 17:31N 35°54' W 005°19'0 0.0
2014-Jul-28 16:31N 35°54' W 005°19'0 0.0
2014-Jul-28 15:31N 35°54' W 005°19'0 0.0
2014-Jul-28 14:31N 35°54' W 005°19'1 0.6
2014-Jul-28 13:33N 35°54' W 005°19'11810.4
2014-Jul-28 02:13N 36°12' W 007°42'5410.8
2014-Jul-27 21:13N 36°27' W 008°47'60 9.7
2014-Jul-27 15:06N 37°08' W 009°40'4311.0
2014-Jul-27 11:11N 37°50' W 009°52'610.3
2014-Jul-27 10:33N 37°57' W 009°54'1110.2
2014-Jul-27 09:30N 38°07' W 009°57'  
2014-Jul-23 17:03N 50°28' W 000°24'2710.4
2014-Jul-23 14:27N 50°35' E 000°17'1011.8
2014-Jul-23 13:33N 50°38' E 000°33'1211.4
2014-Jul-23 12:31N 50°44' E 000°48'31 9.9
2014-Jul-23 09:21N 51°04' E 001°27'8 9.7
2014-Jul-23 08:33N 51°09' E 001°36'10 9.8
2014-Jul-23 07:33N 51°16' E 001°47'1111.2
2014-Jul-23 06:33N 51°27' E 001°53'1211.8
2014-Jul-23 05:33N 51°35' E 002°06'1211.7
2014-Jul-23 04:32N 51°44' E 002°19'3110.1
2014-Jul-23 01:31N 52°03' E 002°58'9 9.7
2014-Jul-23 00:33N 52°04' E 003°13'9 9.3
2014-Jul-22 23:33N 52°04' E 003°28'9 9.1
2014-Jul-22 22:33N 52°05' E 003°43'9 9.1
2014-Jul-22 21:33N 52°02' E 003°57'8 6.4
2014-Jul-22 20:21N 51°58' E 004°07'0 0.0
2014-Jul-22 19:33N 51°58' E 004°07'0 0.0
2014-Jul-22 18:33N 51°58' E 004°07'0 0.0
2014-Jul-22 17:21N 51°58' E 004°07'0 0.0
2014-Jul-22 16:33N 51°58' E 004°07'0 0.0
2014-Jul-22 15:30N 51°58' E 004°07'0 0.0
2014-Jul-22 14:33N 51°58' E 004°07'0 0.0
2014-Jul-22 11:27N 51°58' E 004°07'0 0.0
2014-Jul-22 10:33N 51°58' E 004°07'0 0.0
2014-Jul-22 09:30N 51°58' E 004°07'0 0.0
2014-Jul-22 08:33N 51°58' E 004°07'0 0.0
2014-Jul-22 07:33N 51°58' E 004°07'0 0.0
2014-Jul-22 06:30N 51°58' E 004°07'0 0.0
2014-Jul-22 05:30N 51°58' E 004°07'0 0.0
2014-Jul-22 04:33N 51°58' E 004°07'0 0.0
2014-Jul-22 03:27N 51°58' E 004°07'0 0.0
2014-Jul-22 02:27N 51°58' E 004°07'0 0.0
2014-Jul-22 01:21N 51°58' E 004°07'0 0.0
2014-Jul-21 23:30N 51°58' E 004°07'0 0.0
2014-Jul-21 22:33N 51°58' E 004°07'0 0.0
2014-Jul-21 21:33N 51°58' E 004°07'0 0.0
2014-Jul-21 20:03N 51°58' E 004°07'0 0.0
2014-Jul-21 17:27N 51°58' E 004°07'0 0.0
2014-Jul-21 16:27N 51°58' E 004°07'0 0.0
2014-Jul-21 15:15N 51°58' E 004°07'0 0.0
2014-Jul-21 14:33N 51°58' E 004°07'0 0.0
2014-Jul-21 13:27N 51°58' E 004°07'0 0.1
2014-Jul-21 08:29N 51°57' E 004°08'0 0.0
2014-Jul-21 07:32N 51°57' E 004°07'0 0.0
2014-Jul-21 06:32N 51°57' E 004°07'0 0.0
2014-Jul-21 05:26N 51°57' E 004°07'0 0.0
2014-Jul-21 04:32N 51°57' E 004°07'0 0.0
2014-Jul-21 03:32N 51°57' E 004°07'0 0.0
2014-Jul-21 02:32N 51°57' E 004°07'0 0.0
2014-Jul-21 01:29N 51°57' E 004°07'0 0.0
2014-Jul-21 00:29N 51°57' E 004°07'0 0.0
2014-Jul-20 23:32N 51°57' E 004°07'0 0.0
2014-Jul-20 22:32N 51°57' E 004°07'0 0.0
2014-Jul-20 21:32N 51°57' E 004°07'0 0.0
2014-Jul-20 20:32N 51°57' E 004°07'0 0.0
2014-Jul-20 19:32N 51°57' E 004°07'0 0.0
2014-Jul-20 18:32N 51°57' E 004°07'0 0.0
2014-Jul-20 17:32N 51°57' E 004°07'0 0.0
2014-Jul-20 16:29N 51°57' E 004°07'0 0.0
2014-Jul-20 15:32N 51°57' E 004°07'0 0.0
2014-Jul-20 14:29N 51°57' E 004°07'0 0.0
2014-Jul-20 13:29N 51°57' E 004°07'0 0.0
2014-Jul-20 12:32N 51°57' E 004°07'0 0.0
2014-Jul-20 11:32N 51°57' E 004°07'0 0.0
2014-Jul-20 10:29N 51°57' E 004°07'0 0.0
2014-Jul-20 09:32N 51°57' E 004°07'0 0.0
2014-Jul-20 08:32N 51°57' E 004°07'0 0.0
2014-Jul-20 07:32N 51°57' E 004°07'0 0.0
2014-Jul-20 06:32N 51°57' E 004°07'0 0.0
2014-Jul-20 05:29N 51°57' E 004°07'0 0.0
2014-Jul-20 04:32N 51°57' E 004°07'0 0.0
2014-Jul-20 03:32N 51°57' E 004°07'0 0.0
2014-Jul-20 02:32N 51°57' E 004°07'0 0.0
2014-Jul-20 01:32N 51°57' E 004°07'0 0.0
2014-Jul-20 00:32N 51°57' E 004°07'0 0.0
2014-Jul-19 23:32N 51°57' E 004°07'0 0.0
2014-Jul-19 22:32N 51°57' E 004°07'0 0.0
2014-Jul-19 21:32N 51°57' E 004°07'0 0.0
2014-Jul-19 20:32N 51°57' E 004°07'0 0.0
2014-Jul-19 19:32N 51°57' E 004°07'0 0.0
2014-Jul-19 18:32N 51°57' E 004°08'0 0.0
2014-Jul-19 17:26N 51°57' E 004°08'0 0.0
2014-Jul-19 16:32N 51°57' E 004°08'0 0.0
2014-Jul-19 15:32N 51°57' E 004°08'0 0.0
2014-Jul-19 14:23N 51°57' E 004°08'0 0.0
2014-Jul-19 13:26N 51°57' E 004°08'0 0.0
2014-Jul-19 12:32N 51°57' E 004°08'0 0.0
2014-Jul-19 11:32N 51°57' E 004°08'0 0.0
2014-Jul-19 10:32N 51°57' E 004°08'0 0.0
2014-Jul-19 09:23N 51°57' E 004°08'0 0.0
2014-Jul-19 08:32N 51°57' E 004°08'0 0.0
2014-Jul-19 07:32N 51°57' E 004°08'0 0.0
2014-Jul-19 06:26N 51°57' E 004°08'0 0.0
2014-Jul-19 05:32N 51°57' E 004°08'0 0.0
2014-Jul-19 04:29N 51°57' E 004°08'0 0.0
2014-Jul-19 03:32N 51°57' E 004°08'0 0.0
2014-Jul-19 02:32N 51°57' E 004°08'0 0.0
2014-Jul-19 01:32N 51°57' E 004°08'0 0.0
2014-Jul-19 00:32N 51°57' E 004°08'0 0.0
2014-Jul-18 23:23N 51°57' E 004°08'0 0.0
2014-Jul-18 22:11N 51°57' E 004°08'0 0.0
2014-Jul-18 21:20N 51°57' E 004°08'0 0.0
2014-Jul-18 20:26N 51°57' E 004°08'1 1.2
2014-Jul-18 19:33N 51°59' E 004°07'8 7.8
2014-Jul-18 18:33N 51°54' E 004°17'  

Dump ship's entire track history